sensor_id;sensor_type;location;lat;lon;timestamp;P1;durP1;ratioP1;P2;durP2;ratioP2
32038;SDS011;18549;42.286;22.688;2023-09-30T00:01:56;14.18;;;3.83;;
32038;SDS011;18549;42.286;22.688;2023-09-30T00:04:23;11.20;;;3.87;;
32038;SDS011;18549;42.286;22.688;2023-09-30T00:06:52;11.57;;;4.20;;
32038;SDS011;18549;42.286;22.688;2023-09-30T00:09:19;14.93;;;3.97;;
32038;SDS011;18549;42.286;22.688;2023-09-30T00:11:47;11.10;;;4.05;;
32038;SDS011;18549;42.286;22.688;2023-09-30T00:14:14;12.80;;;4.75;;
32038;SDS011;18549;42.286;22.688;2023-09-30T00:16:43;12.52;;;4.05;;
32038;SDS011;18549;42.286;22.688;2023-09-30T00:19:11;8.13;;;4.22;;
32038;SDS011;18549;42.286;22.688;2023-09-30T00:21:38;12.73;;;4.70;;
32038;SDS011;18549;42.286;22.688;2023-09-30T00:24:06;12.63;;;4.25;;
32038;SDS011;18549;42.286;22.688;2023-09-30T00:26:34;9.38;;;3.90;;
32038;SDS011;18549;42.286;22.688;2023-09-30T00:29:02;8.68;;;4.03;;
32038;SDS011;18549;42.286;22.688;2023-09-30T00:31:33;23.95;;;5.00;;
32038;SDS011;18549;42.286;22.688;2023-09-30T00:34:03;8.43;;;4.28;;
32038;SDS011;18549;42.286;22.688;2023-09-30T00:36:33;13.90;;;5.12;;
32038;SDS011;18549;42.286;22.688;2023-09-30T00:39:01;15.10;;;4.65;;
32038;SDS011;18549;42.286;22.688;2023-09-30T00:41:29;8.68;;;4.78;;
32038;SDS011;18549;42.286;22.688;2023-09-30T00:43:57;17.92;;;5.15;;
32038;SDS011;18549;42.286;22.688;2023-09-30T00:46:26;14.87;;;4.53;;
32038;SDS011;18549;42.286;22.688;2023-09-30T00:48:55;10.35;;;5.25;;
32038;SDS011;18549;42.286;22.688;2023-09-30T00:51:27;14.63;;;4.75;;
32038;SDS011;18549;42.286;22.688;2023-09-30T00:53:55;15.63;;;4.57;;
32038;SDS011;18549;42.286;22.688;2023-09-30T00:56:25;14.95;;;4.62;;
32038;SDS011;18549;42.286;22.688;2023-09-30T00:58:54;15.07;;;3.92;;
32038;SDS011;18549;42.286;22.688;2023-09-30T01:01:23;6.60;;;4.45;;
32038;SDS011;18549;42.286;22.688;2023-09-30T01:03:51;17.30;;;4.90;;
32038;SDS011;18549;42.286;22.688;2023-09-30T01:06:18;8.95;;;4.57;;
32038;SDS011;18549;42.286;22.688;2023-09-30T01:08:48;14.45;;;5.43;;
32038;SDS011;18549;42.286;22.688;2023-09-30T01:11:16;11.68;;;5.03;;
32038;SDS011;18549;42.286;22.688;2023-09-30T01:13:44;10.40;;;4.43;;
32038;SDS011;18549;42.286;22.688;2023-09-30T01:16:12;13.65;;;4.62;;
32038;SDS011;18549;42.286;22.688;2023-09-30T01:18:40;7.37;;;4.53;;
32038;SDS011;18549;42.286;22.688;2023-09-30T01:21:08;10.07;;;4.43;;
32038;SDS011;18549;42.286;22.688;2023-09-30T01:23:38;11.95;;;4.95;;
32038;SDS011;18549;42.286;22.688;2023-09-30T01:26:07;11.12;;;4.68;;
32038;SDS011;18549;42.286;22.688;2023-09-30T01:28:35;10.55;;;4.22;;
32038;SDS011;18549;42.286;22.688;2023-09-30T01:31:02;14.00;;;4.70;;
32038;SDS011;18549;42.286;22.688;2023-09-30T01:33:30;7.37;;;4.53;;
32038;SDS011;18549;42.286;22.688;2023-09-30T01:35:58;9.65;;;4.55;;
32038;SDS011;18549;42.286;22.688;2023-09-30T01:38:26;11.05;;;4.28;;
32038;SDS011;18549;42.286;22.688;2023-09-30T01:40:54;9.98;;;4.45;;
32038;SDS011;18549;42.286;22.688;2023-09-30T01:43:22;11.57;;;5.12;;
32038;SDS011;18549;42.286;22.688;2023-09-30T01:45:49;10.55;;;4.28;;
32038;SDS011;18549;42.286;22.688;2023-09-30T01:48:16;10.13;;;4.50;;
32038;SDS011;18549;42.286;22.688;2023-09-30T01:50:44;7.03;;;4.82;;
32038;SDS011;18549;42.286;22.688;2023-09-30T01:53:11;20.92;;;4.57;;
32038;SDS011;18549;42.286;22.688;2023-09-30T01:55:39;8.93;;;4.82;;
32038;SDS011;18549;42.286;22.688;2023-09-30T01:58:07;8.85;;;5.25;;
32038;SDS011;18549;42.286;22.688;2023-09-30T02:00:36;14.32;;;5.62;;
32038;SDS011;18549;42.286;22.688;2023-09-30T02:03:04;7.53;;;4.43;;
32038;SDS011;18549;42.286;22.688;2023-09-30T02:05:32;10.48;;;5.62;;
32038;SDS011;18549;42.286;22.688;2023-09-30T02:07:59;8.05;;;4.72;;
32038;SDS011;18549;42.286;22.688;2023-09-30T02:10:31;7.93;;;4.47;;
32038;SDS011;18549;42.286;22.688;2023-09-30T02:12:59;22.70;;;6.05;;
32038;SDS011;18549;42.286;22.688;2023-09-30T02:15:27;10.38;;;5.20;;
32038;SDS011;18549;42.286;22.688;2023-09-30T02:17:55;10.75;;;6.15;;
32038;SDS011;18549;42.286;22.688;2023-09-30T02:20:22;14.13;;;6.07;;
32038;SDS011;18549;42.286;22.688;2023-09-30T02:22:51;13.80;;;4.75;;
32038;SDS011;18549;42.286;22.688;2023-09-30T02:25:19;10.80;;;4.95;;
32038;SDS011;18549;42.286;22.688;2023-09-30T02:27:47;12.37;;;5.43;;
32038;SDS011;18549;42.286;22.688;2023-09-30T02:30:16;17.70;;;6.60;;
32038;SDS011;18549;42.286;22.688;2023-09-30T02:32:44;11.35;;;5.80;;
32038;SDS011;18549;42.286;22.688;2023-09-30T02:35:12;9.77;;;6.20;;
32038;SDS011;18549;42.286;22.688;2023-09-30T02:37:40;6.97;;;5.22;;
32038;SDS011;18549;42.286;22.688;2023-09-30T02:40:08;16.33;;;5.57;;
32038;SDS011;18549;42.286;22.688;2023-09-30T02:42:40;16.17;;;5.35;;
32038;SDS011;18549;42.286;22.688;2023-09-30T02:45:08;11.77;;;5.45;;
32038;SDS011;18549;42.286;22.688;2023-09-30T02:47:37;12.03;;;6.00;;
32038;SDS011;18549;42.286;22.688;2023-09-30T02:50:07;9.13;;;5.22;;
32038;SDS011;18549;42.286;22.688;2023-09-30T02:52:37;11.60;;;6.12;;
32038;SDS011;18549;42.286;22.688;2023-09-30T02:55:06;14.32;;;5.60;;
32038;SDS011;18549;42.286;22.688;2023-09-30T02:57:34;5.12;;;4.55;;
32038;SDS011;18549;42.286;22.688;2023-09-30T03:00:02;17.23;;;5.32;;
32038;SDS011;18549;42.286;22.688;2023-09-30T03:02:39;7.75;;;4.35;;
32038;SDS011;18549;42.286;22.688;2023-09-30T03:05:08;19.95;;;4.28;;
32038;SDS011;18549;42.286;22.688;2023-09-30T03:07:37;13.68;;;4.87;;
32038;SDS011;18549;42.286;22.688;2023-09-30T03:10:05;7.60;;;4.37;;
32038;SDS011;18549;42.286;22.688;2023-09-30T03:12:34;14.57;;;5.28;;
32038;SDS011;18549;42.286;22.688;2023-09-30T03:15:01;13.30;;;5.03;;
32038;SDS011;18549;42.286;22.688;2023-09-30T03:17:30;19.85;;;4.70;;
32038;SDS011;18549;42.286;22.688;2023-09-30T03:19:57;14.52;;;4.75;;
32038;SDS011;18549;42.286;22.688;2023-09-30T03:22:26;15.85;;;5.60;;
32038;SDS011;18549;42.286;22.688;2023-09-30T03:24:54;17.70;;;6.07;;
32038;SDS011;18549;42.286;22.688;2023-09-30T03:27:22;14.35;;;4.75;;
32038;SDS011;18549;42.286;22.688;2023-09-30T03:29:49;15.02;;;5.57;;
32038;SDS011;18549;42.286;22.688;2023-09-30T03:32:16;16.02;;;5.03;;
32038;SDS011;18549;42.286;22.688;2023-09-30T03:34:43;22.10;;;5.12;;
32038;SDS011;18549;42.286;22.688;2023-09-30T03:37:11;12.52;;;5.12;;
32038;SDS011;18549;42.286;22.688;2023-09-30T03:39:40;21.10;;;5.32;;
32038;SDS011;18549;42.286;22.688;2023-09-30T03:42:08;11.57;;;5.50;;
32038;SDS011;18549;42.286;22.688;2023-09-30T03:44:36;12.70;;;5.53;;
32038;SDS011;18549;42.286;22.688;2023-09-30T03:47:04;14.75;;;5.50;;
32038;SDS011;18549;42.286;22.688;2023-09-30T03:49:34;13.55;;;5.43;;
32038;SDS011;18549;42.286;22.688;2023-09-30T03:52:03;9.38;;;4.95;;
32038;SDS011;18549;42.286;22.688;2023-09-30T03:54:31;11.05;;;5.10;;
32038;SDS011;18549;42.286;22.688;2023-09-30T03:57:00;14.63;;;5.07;;
32038;SDS011;18549;42.286;22.688;2023-09-30T03:59:28;31.73;;;5.72;;
32038;SDS011;18549;42.286;22.688;2023-09-30T04:01:56;12.73;;;6.15;;
32038;SDS011;18549;42.286;22.688;2023-09-30T04:04:23;19.77;;;5.60;;
32038;SDS011;18549;42.286;22.688;2023-09-30T04:06:51;8.02;;;5.68;;
32038;SDS011;18549;42.286;22.688;2023-09-30T04:09:19;7.18;;;4.93;;
32038;SDS011;18549;42.286;22.688;2023-09-30T04:11:46;11.85;;;5.18;;
32038;SDS011;18549;42.286;22.688;2023-09-30T04:14:16;9.63;;;5.53;;
32038;SDS011;18549;42.286;22.688;2023-09-30T04:16:43;16.30;;;5.53;;
32038;SDS011;18549;42.286;22.688;2023-09-30T04:19:11;9.07;;;4.35;;
32038;SDS011;18549;42.286;22.688;2023-09-30T04:21:39;23.17;;;6.35;;
32038;SDS011;18549;42.286;22.688;2023-09-30T04:24:06;17.35;;;6.22;;
32038;SDS011;18549;42.286;22.688;2023-09-30T04:26:34;11.07;;;5.35;;
32038;SDS011;18549;42.286;22.688;2023-09-30T04:29:02;18.87;;;6.05;;
32038;SDS011;18549;42.286;22.688;2023-09-30T04:31:37;14.38;;;5.80;;
32038;SDS011;18549;42.286;22.688;2023-09-30T04:34:07;18.98;;;6.47;;
32038;SDS011;18549;42.286;22.688;2023-09-30T04:36:34;11.45;;;5.90;;
32038;SDS011;18549;42.286;22.688;2023-09-30T04:39:01;15.90;;;7.07;;
32038;SDS011;18549;42.286;22.688;2023-09-30T04:41:30;16.27;;;6.20;;
32038;SDS011;18549;42.286;22.688;2023-09-30T04:43:57;12.82;;;7.18;;
32038;SDS011;18549;42.286;22.688;2023-09-30T04:46:25;23.67;;;7.82;;
32038;SDS011;18549;42.286;22.688;2023-09-30T04:48:54;16.35;;;7.55;;
32038;SDS011;18549;42.286;22.688;2023-09-30T04:51:21;15.30;;;7.62;;
32038;SDS011;18549;42.286;22.688;2023-09-30T04:53:51;17.02;;;8.80;;
32038;SDS011;18549;42.286;22.688;2023-09-30T04:56:20;21.60;;;9.02;;
32038;SDS011;18549;42.286;22.688;2023-09-30T04:58:47;21.73;;;9.88;;
32038;SDS011;18549;42.286;22.688;2023-09-30T05:01:14;28.33;;;10.65;;
32038;SDS011;18549;42.286;22.688;2023-09-30T05:03:44;15.50;;;9.73;;
32038;SDS011;18549;42.286;22.688;2023-09-30T05:06:15;16.55;;;9.05;;
32038;SDS011;18549;42.286;22.688;2023-09-30T05:08:43;15.43;;;9.43;;
32038;SDS011;18549;42.286;22.688;2023-09-30T05:11:10;15.35;;;8.93;;
32038;SDS011;18549;42.286;22.688;2023-09-30T05:13:37;19.33;;;9.90;;
32038;SDS011;18549;42.286;22.688;2023-09-30T05:16:05;18.85;;;9.57;;
32038;SDS011;18549;42.286;22.688;2023-09-30T05:18:32;18.00;;;9.77;;
32038;SDS011;18549;42.286;22.688;2023-09-30T05:21:00;16.20;;;9.73;;
32038;SDS011;18549;42.286;22.688;2023-09-30T05:23:28;23.17;;;10.10;;
32038;SDS011;18549;42.286;22.688;2023-09-30T05:25:56;15.90;;;9.32;;
32038;SDS011;18549;42.286;22.688;2023-09-30T05:28:23;23.50;;;9.38;;
32038;SDS011;18549;42.286;22.688;2023-09-30T05:30:49;16.70;;;9.50;;
32038;SDS011;18549;42.286;22.688;2023-09-30T05:33:17;26.87;;;10.33;;
32038;SDS011;18549;42.286;22.688;2023-09-30T05:35:44;15.50;;;9.07;;
32038;SDS011;18549;42.286;22.688;2023-09-30T05:38:12;18.40;;;9.98;;
32038;SDS011;18549;42.286;22.688;2023-09-30T05:40:41;13.73;;;7.15;;
32038;SDS011;18549;42.286;22.688;2023-09-30T05:43:09;21.10;;;9.35;;
32038;SDS011;18549;42.286;22.688;2023-09-30T05:45:39;18.27;;;7.62;;
32038;SDS011;18549;42.286;22.688;2023-09-30T05:48:14;10.75;;;7.25;;
32038;SDS011;18549;42.286;22.688;2023-09-30T05:50:41;15.95;;;6.43;;
32038;SDS011;18549;42.286;22.688;2023-09-30T05:53:09;17.83;;;6.82;;
32038;SDS011;18549;42.286;22.688;2023-09-30T05:55:37;17.40;;;6.97;;
32038;SDS011;18549;42.286;22.688;2023-09-30T05:58:09;20.92;;;6.75;;
32038;SDS011;18549;42.286;22.688;2023-09-30T06:00:39;13.00;;;6.95;;
32038;SDS011;18549;42.286;22.688;2023-09-30T06:03:07;26.83;;;8.77;;
32038;SDS011;18549;42.286;22.688;2023-09-30T06:05:38;22.02;;;7.45;;
32038;SDS011;18549;42.286;22.688;2023-09-30T06:08:07;14.57;;;6.90;;
32038;SDS011;18549;42.286;22.688;2023-09-30T06:10:35;22.42;;;7.68;;
32038;SDS011;18549;42.286;22.688;2023-09-30T06:13:09;13.25;;;7.55;;
32038;SDS011;18549;42.286;22.688;2023-09-30T06:15:37;17.40;;;5.25;;
32038;SDS011;18549;42.286;22.688;2023-09-30T06:18:05;10.48;;;5.85;;
32038;SDS011;18549;42.286;22.688;2023-09-30T06:20:32;12.50;;;5.65;;
32038;SDS011;18549;42.286;22.688;2023-09-30T06:23:00;19.70;;;5.70;;
32038;SDS011;18549;42.286;22.688;2023-09-30T06:25:27;9.73;;;5.60;;
32038;SDS011;18549;42.286;22.688;2023-09-30T06:27:55;27.25;;;6.20;;
32038;SDS011;18549;42.286;22.688;2023-09-30T06:30:25;17.50;;;6.20;;
32038;SDS011;18549;42.286;22.688;2023-09-30T06:32:55;30.58;;;6.55;;
32038;SDS011;18549;42.286;22.688;2023-09-30T06:35:22;22.17;;;5.82;;
32038;SDS011;18549;42.286;22.688;2023-09-30T06:37:51;20.92;;;5.85;;
32038;SDS011;18549;42.286;22.688;2023-09-30T06:40:19;15.95;;;6.40;;
32038;SDS011;18549;42.286;22.688;2023-09-30T06:42:46;14.60;;;5.70;;
32038;SDS011;18549;42.286;22.688;2023-09-30T06:45:13;10.50;;;5.78;;
32038;SDS011;18549;42.286;22.688;2023-09-30T06:47:42;25.67;;;6.75;;
32038;SDS011;18549;42.286;22.688;2023-09-30T06:50:11;11.98;;;5.75;;
32038;SDS011;18549;42.286;22.688;2023-09-30T06:52:42;17.35;;;5.55;;
32038;SDS011;18549;42.286;22.688;2023-09-30T06:55:10;14.35;;;6.40;;
32038;SDS011;18549;42.286;22.688;2023-09-30T06:57:41;15.73;;;7.18;;
32038;SDS011;18549;42.286;22.688;2023-09-30T07:00:10;15.10;;;5.68;;
32038;SDS011;18549;42.286;22.688;2023-09-30T07:02:39;17.65;;;5.72;;
32038;SDS011;18549;42.286;22.688;2023-09-30T07:05:08;9.52;;;5.60;;
32038;SDS011;18549;42.286;22.688;2023-09-30T07:07:36;15.23;;;6.32;;
32038;SDS011;18549;42.286;22.688;2023-09-30T07:10:05;14.30;;;6.40;;
32038;SDS011;18549;42.286;22.688;2023-09-30T07:12:33;10.70;;;6.35;;
32038;SDS011;18549;42.286;22.688;2023-09-30T07:15:00;14.77;;;7.18;;
32038;SDS011;18549;42.286;22.688;2023-09-30T07:17:28;10.80;;;6.10;;
32038;SDS011;18549;42.286;22.688;2023-09-30T07:19:55;17.70;;;7.00;;
32038;SDS011;18549;42.286;22.688;2023-09-30T07:22:24;16.42;;;7.82;;
32038;SDS011;18549;42.286;22.688;2023-09-30T07:24:52;16.05;;;7.53;;
32038;SDS011;18549;42.286;22.688;2023-09-30T07:27:19;21.80;;;7.10;;
32038;SDS011;18549;42.286;22.688;2023-09-30T07:29:47;15.00;;;7.30;;
32038;SDS011;18549;42.286;22.688;2023-09-30T07:32:14;12.85;;;7.53;;
32038;SDS011;18549;42.286;22.688;2023-09-30T07:34:41;25.70;;;8.27;;
32038;SDS011;18549;42.286;22.688;2023-09-30T07:37:09;11.43;;;6.30;;
32038;SDS011;18549;42.286;22.688;2023-09-30T07:39:37;17.48;;;7.10;;
32038;SDS011;18549;42.286;22.688;2023-09-30T07:42:05;18.58;;;6.87;;
32038;SDS011;18549;42.286;22.688;2023-09-30T07:44:35;25.73;;;7.40;;
32038;SDS011;18549;42.286;22.688;2023-09-30T07:47:02;20.42;;;6.90;;
32038;SDS011;18549;42.286;22.688;2023-09-30T07:49:31;12.52;;;6.18;;
32038;SDS011;18549;42.286;22.688;2023-09-30T07:51:58;13.75;;;6.35;;
32038;SDS011;18549;42.286;22.688;2023-09-30T07:54:26;16.15;;;5.18;;
32038;SDS011;18549;42.286;22.688;2023-09-30T07:56:55;13.32;;;4.43;;
32038;SDS011;18549;42.286;22.688;2023-09-30T07:59:23;11.73;;;4.57;;
32038;SDS011;18549;42.286;22.688;2023-09-30T08:01:50;12.82;;;4.78;;
32038;SDS011;18549;42.286;22.688;2023-09-30T08:04:18;11.40;;;6.47;;
32038;SDS011;18549;42.286;22.688;2023-09-30T08:06:46;20.95;;;6.37;;
32038;SDS011;18549;42.286;22.688;2023-09-30T08:09:13;15.57;;;5.65;;
32038;SDS011;18549;42.286;22.688;2023-09-30T08:11:40;16.80;;;4.93;;
32038;SDS011;18549;42.286;22.688;2023-09-30T08:14:10;11.75;;;5.43;;
32038;SDS011;18549;42.286;22.688;2023-09-30T08:16:38;8.68;;;5.07;;
32038;SDS011;18549;42.286;22.688;2023-09-30T08:19:05;18.70;;;5.22;;
32038;SDS011;18549;42.286;22.688;2023-09-30T08:21:33;18.20;;;5.10;;
32038;SDS011;18549;42.286;22.688;2023-09-30T08:24:01;18.62;;;5.18;;
32038;SDS011;18549;42.286;22.688;2023-09-30T08:26:29;24.92;;;6.60;;
32038;SDS011;18549;42.286;22.688;2023-09-30T08:28:56;14.13;;;6.30;;
32038;SDS011;18549;42.286;22.688;2023-09-30T08:31:25;13.13;;;6.05;;
32038;SDS011;18549;42.286;22.688;2023-09-30T08:33:52;14.80;;;6.53;;
32038;SDS011;18549;42.286;22.688;2023-09-30T08:36:20;13.70;;;6.80;;
32038;SDS011;18549;42.286;22.688;2023-09-30T08:38:47;24.35;;;6.55;;
32038;SDS011;18549;42.286;22.688;2023-09-30T08:41:16;16.65;;;6.68;;
32038;SDS011;18549;42.286;22.688;2023-09-30T08:43:55;17.70;;;7.40;;
32038;SDS011;18549;42.286;22.688;2023-09-30T08:46:28;14.02;;;7.18;;
32038;SDS011;18549;42.286;22.688;2023-09-30T08:48:57;12.88;;;7.47;;
32038;SDS011;18549;42.286;22.688;2023-09-30T08:51:26;25.17;;;7.65;;
32038;SDS011;18549;42.286;22.688;2023-09-30T08:53:55;13.95;;;6.95;;
32038;SDS011;18549;42.286;22.688;2023-09-30T08:56:24;13.88;;;7.12;;
32038;SDS011;18549;42.286;22.688;2023-09-30T08:58:54;18.05;;;7.47;;
32038;SDS011;18549;42.286;22.688;2023-09-30T09:01:25;17.17;;;7.00;;
32038;SDS011;18549;42.286;22.688;2023-09-30T09:03:55;20.45;;;7.90;;
32038;SDS011;18549;42.286;22.688;2023-09-30T09:06:23;13.77;;;7.62;;
32038;SDS011;18549;42.286;22.688;2023-09-30T09:08:51;19.92;;;7.95;;
32038;SDS011;18549;42.286;22.688;2023-09-30T09:11:19;13.90;;;7.50;;
32038;SDS011;18549;42.286;22.688;2023-09-30T09:13:47;18.25;;;7.22;;
32038;SDS011;18549;42.286;22.688;2023-09-30T09:16:18;20.85;;;7.55;;
32038;SDS011;18549;42.286;22.688;2023-09-30T09:18:46;11.00;;;7.35;;
32038;SDS011;18549;42.286;22.688;2023-09-30T09:21:17;25.50;;;7.32;;
32038;SDS011;18549;42.286;22.688;2023-09-30T09:23:49;9.30;;;7.18;;
32038;SDS011;18549;42.286;22.688;2023-09-30T09:26:23;14.18;;;5.75;;
32038;SDS011;18549;42.286;22.688;2023-09-30T09:28:56;16.10;;;7.35;;
32038;SDS011;18549;42.286;22.688;2023-09-30T09:31:26;16.10;;;7.37;;
32038;SDS011;18549;42.286;22.688;2023-09-30T09:33:54;15.57;;;7.40;;
32038;SDS011;18549;42.286;22.688;2023-09-30T09:36:38;16.80;;;7.43;;
32038;SDS011;18549;42.286;22.688;2023-09-30T09:39:07;18.60;;;7.45;;
32038;SDS011;18549;42.286;22.688;2023-09-30T09:41:48;14.80;;;7.07;;
32038;SDS011;18549;42.286;22.688;2023-09-30T09:44:17;16.20;;;6.15;;
32038;SDS011;18549;42.286;22.688;2023-09-30T09:46:46;9.85;;;6.45;;
32038;SDS011;18549;42.286;22.688;2023-09-30T09:49:18;11.00;;;6.93;;
32038;SDS011;18549;42.286;22.688;2023-09-30T09:51:50;8.55;;;6.28;;
32038;SDS011;18549;42.286;22.688;2023-09-30T09:54:20;11.12;;;7.03;;
32038;SDS011;18549;42.286;22.688;2023-09-30T09:56:49;24.00;;;8.40;;
32038;SDS011;18549;42.286;22.688;2023-09-30T09:59:19;15.23;;;6.60;;
32038;SDS011;18549;42.286;22.688;2023-09-30T10:01:49;13.52;;;7.28;;
32038;SDS011;18549;42.286;22.688;2023-09-30T10:04:17;19.67;;;6.95;;
32038;SDS011;18549;42.286;22.688;2023-09-30T10:06:44;20.83;;;6.80;;
32038;SDS011;18549;42.286;22.688;2023-09-30T10:09:19;12.60;;;7.18;;
32038;SDS011;18549;42.286;22.688;2023-09-30T10:11:47;13.73;;;6.53;;
32038;SDS011;18549;42.286;22.688;2023-09-30T10:14:29;12.27;;;6.65;;
32038;SDS011;18549;42.286;22.688;2023-09-30T10:16:58;11.12;;;6.28;;
32038;SDS011;18549;42.286;22.688;2023-09-30T10:19:28;8.93;;;6.12;;
32038;SDS011;18549;42.286;22.688;2023-09-30T10:24:48;18.40;;;6.35;;
32038;SDS011;18549;42.286;22.688;2023-09-30T10:27:35;17.83;;;6.15;;
32038;SDS011;18549;42.286;22.688;2023-09-30T10:30:06;13.55;;;6.22;;
32038;SDS011;18549;42.286;22.688;2023-09-30T10:35:43;11.25;;;5.65;;
32038;SDS011;18549;42.286;22.688;2023-09-30T10:41:07;15.75;;;6.60;;
32038;SDS011;18549;42.286;22.688;2023-09-30T10:43:37;18.08;;;6.05;;
32038;SDS011;18549;42.286;22.688;2023-09-30T10:49:14;13.48;;;7.28;;
32038;SDS011;18549;42.286;22.688;2023-09-30T10:51:45;12.80;;;5.57;;
32038;SDS011;18549;42.286;22.688;2023-09-30T10:54:12;22.55;;;7.97;;
32038;SDS011;18549;42.286;22.688;2023-09-30T10:56:41;15.05;;;6.22;;
32038;SDS011;18549;42.286;22.688;2023-09-30T10:59:09;18.60;;;6.12;;
32038;SDS011;18549;42.286;22.688;2023-09-30T11:01:37;10.23;;;6.00;;
32038;SDS011;18549;42.286;22.688;2023-09-30T11:04:05;20.30;;;5.45;;
32038;SDS011;18549;42.286;22.688;2023-09-30T11:06:34;8.63;;;6.20;;
32038;SDS011;18549;42.286;22.688;2023-09-30T11:09:01;14.85;;;6.00;;
32038;SDS011;18549;42.286;22.688;2023-09-30T11:11:32;10.32;;;5.28;;
32038;SDS011;18549;42.286;22.688;2023-09-30T11:14:08;9.35;;;5.57;;
32038;SDS011;18549;42.286;22.688;2023-09-30T11:16:43;12.68;;;5.68;;
32038;SDS011;18549;42.286;22.688;2023-09-30T11:19:11;18.37;;;6.03;;
32038;SDS011;18549;42.286;22.688;2023-09-30T11:21:40;16.87;;;6.60;;
32038;SDS011;18549;42.286;22.688;2023-09-30T11:24:09;11.32;;;5.07;;
32038;SDS011;18549;42.286;22.688;2023-09-30T11:26:37;8.07;;;5.22;;
32038;SDS011;18549;42.286;22.688;2023-09-30T11:29:08;9.85;;;5.03;;
32038;SDS011;18549;42.286;22.688;2023-09-30T11:31:37;9.20;;;5.05;;
32038;SDS011;18549;42.286;22.688;2023-09-30T11:34:06;10.32;;;5.20;;
32038;SDS011;18549;42.286;22.688;2023-09-30T11:36:34;11.30;;;5.05;;
32038;SDS011;18549;42.286;22.688;2023-09-30T11:39:02;14.82;;;5.15;;
32038;SDS011;18549;42.286;22.688;2023-09-30T11:41:33;8.00;;;5.12;;
32038;SDS011;18549;42.286;22.688;2023-09-30T11:44:04;6.95;;;5.18;;
32038;SDS011;18549;42.286;22.688;2023-09-30T11:46:48;12.65;;;4.87;;
32038;SDS011;18549;42.286;22.688;2023-09-30T11:49:27;11.65;;;4.47;;
32038;SDS011;18549;42.286;22.688;2023-09-30T11:52:04;9.73;;;4.80;;
32038;SDS011;18549;42.286;22.688;2023-09-30T11:54:35;14.40;;;5.07;;
32038;SDS011;18549;42.286;22.688;2023-09-30T11:57:06;8.15;;;5.07;;
32038;SDS011;18549;42.286;22.688;2023-09-30T11:59:35;13.50;;;5.25;;
32038;SDS011;18549;42.286;22.688;2023-09-30T12:02:04;7.20;;;4.55;;
32038;SDS011;18549;42.286;22.688;2023-09-30T12:04:32;12.55;;;3.60;;
32038;SDS011;18549;42.286;22.688;2023-09-30T12:07:00;6.65;;;4.35;;
32038;SDS011;18549;42.286;22.688;2023-09-30T12:09:27;6.62;;;4.00;;
32038;SDS011;18549;42.286;22.688;2023-09-30T12:11:55;10.13;;;4.37;;
32038;SDS011;18549;42.286;22.688;2023-09-30T12:14:23;7.77;;;4.90;;
32038;SDS011;18549;42.286;22.688;2023-09-30T12:16:51;13.05;;;5.12;;
32038;SDS011;18549;42.286;22.688;2023-09-30T12:19:20;12.77;;;4.15;;
32038;SDS011;18549;42.286;22.688;2023-09-30T12:21:47;12.30;;;4.80;;
32038;SDS011;18549;42.286;22.688;2023-09-30T12:24:15;7.55;;;3.90;;
32038;SDS011;18549;42.286;22.688;2023-09-30T12:26:48;9.80;;;3.90;;
32038;SDS011;18549;42.286;22.688;2023-09-30T12:29:18;13.88;;;3.95;;
32038;SDS011;18549;42.286;22.688;2023-09-30T12:31:47;11.95;;;5.10;;
32038;SDS011;18549;42.286;22.688;2023-09-30T12:34:15;9.48;;;3.55;;
32038;SDS011;18549;42.286;22.688;2023-09-30T12:36:44;6.45;;;3.62;;
32038;SDS011;18549;42.286;22.688;2023-09-30T12:39:12;10.98;;;3.42;;
32038;SDS011;18549;42.286;22.688;2023-09-30T12:41:42;10.60;;;4.55;;
32038;SDS011;18549;42.286;22.688;2023-09-30T12:44:10;9.15;;;4.10;;
32038;SDS011;18549;42.286;22.688;2023-09-30T12:46:38;8.75;;;3.78;;
32038;SDS011;18549;42.286;22.688;2023-09-30T12:49:05;8.27;;;3.90;;
32038;SDS011;18549;42.286;22.688;2023-09-30T12:51:33;17.00;;;4.45;;
32038;SDS011;18549;42.286;22.688;2023-09-30T12:54:03;13.10;;;4.10;;
32038;SDS011;18549;42.286;22.688;2023-09-30T12:56:30;10.40;;;3.92;;
32038;SDS011;18549;42.286;22.688;2023-09-30T12:58:58;12.15;;;4.03;;
32038;SDS011;18549;42.286;22.688;2023-09-30T13:01:26;13.00;;;4.32;;
32038;SDS011;18549;42.286;22.688;2023-09-30T13:03:53;15.00;;;4.72;;
32038;SDS011;18549;42.286;22.688;2023-09-30T13:06:21;10.45;;;4.12;;
32038;SDS011;18549;42.286;22.688;2023-09-30T13:08:49;7.80;;;3.92;;
32038;SDS011;18549;42.286;22.688;2023-09-30T13:11:18;11.48;;;3.62;;
32038;SDS011;18549;42.286;22.688;2023-09-30T13:13:46;18.25;;;3.92;;
32038;SDS011;18549;42.286;22.688;2023-09-30T13:16:13;5.75;;;4.30;;
32038;SDS011;18549;42.286;22.688;2023-09-30T13:18:41;13.82;;;4.75;;
32038;SDS011;18549;42.286;22.688;2023-09-30T13:21:08;8.23;;;3.70;;
32038;SDS011;18549;42.286;22.688;2023-09-30T13:23:37;13.68;;;4.68;;
32038;SDS011;18549;42.286;22.688;2023-09-30T13:26:04;9.80;;;3.97;;
32038;SDS011;18549;42.286;22.688;2023-09-30T13:28:33;16.73;;;4.53;;
32038;SDS011;18549;42.286;22.688;2023-09-30T13:31:01;16.10;;;4.62;;
32038;SDS011;18549;42.286;22.688;2023-09-30T13:33:28;8.80;;;4.18;;
32038;SDS011;18549;42.286;22.688;2023-09-30T13:35:55;5.72;;;3.53;;
32038;SDS011;18549;42.286;22.688;2023-09-30T13:38:23;7.28;;;3.80;;
32038;SDS011;18549;42.286;22.688;2023-09-30T13:40:50;10.18;;;3.55;;
32038;SDS011;18549;42.286;22.688;2023-09-30T13:43:17;6.10;;;3.78;;
32038;SDS011;18549;42.286;22.688;2023-09-30T13:45:47;6.47;;;4.00;;
32038;SDS011;18549;42.286;22.688;2023-09-30T13:48:15;19.50;;;4.27;;
32038;SDS011;18549;42.286;22.688;2023-09-30T13:50:43;18.90;;;5.15;;
32038;SDS011;18549;42.286;22.688;2023-09-30T13:53:11;5.90;;;4.15;;
32038;SDS011;18549;42.286;22.688;2023-09-30T13:55:38;18.58;;;4.68;;
32038;SDS011;18549;42.286;22.688;2023-09-30T13:58:05;15.15;;;4.20;;
32038;SDS011;18549;42.286;22.688;2023-09-30T14:00:33;7.82;;;3.30;;
32038;SDS011;18549;42.286;22.688;2023-09-30T14:03:02;11.75;;;3.60;;
32038;SDS011;18549;42.286;22.688;2023-09-30T14:05:30;16.27;;;4.10;;
32038;SDS011;18549;42.286;22.688;2023-09-30T14:07:57;7.97;;;3.83;;
32038;SDS011;18549;42.286;22.688;2023-09-30T14:10:24;9.77;;;4.07;;
32038;SDS011;18549;42.286;22.688;2023-09-30T14:12:52;6.68;;;4.37;;
32038;SDS011;18549;42.286;22.688;2023-09-30T14:15:20;8.23;;;4.07;;
32038;SDS011;18549;42.286;22.688;2023-09-30T14:17:47;4.93;;;3.40;;
32038;SDS011;18549;42.286;22.688;2023-09-30T14:20:16;12.10;;;3.80;;
32038;SDS011;18549;42.286;22.688;2023-09-30T14:22:43;6.12;;;3.58;;
32038;SDS011;18549;42.286;22.688;2023-09-30T14:25:11;11.88;;;4.07;;
32038;SDS011;18549;42.286;22.688;2023-09-30T14:27:38;7.05;;;3.95;;
32038;SDS011;18549;42.286;22.688;2023-09-30T14:30:07;8.77;;;4.22;;
32038;SDS011;18549;42.286;22.688;2023-09-30T14:32:35;18.52;;;4.12;;
32038;SDS011;18549;42.286;22.688;2023-09-30T14:35:03;15.25;;;4.72;;
32038;SDS011;18549;42.286;22.688;2023-09-30T14:37:32;16.35;;;4.28;;
32038;SDS011;18549;42.286;22.688;2023-09-30T14:40:00;8.13;;;4.12;;
32038;SDS011;18549;42.286;22.688;2023-09-30T14:42:30;12.23;;;4.53;;
32038;SDS011;18549;42.286;22.688;2023-09-30T14:44:57;9.57;;;3.83;;